sensor_id;sensor_type;location;lat;lon;timestamp;pressure;altitude;pressure_sealevel;temperature;humidity
22582;BME280;47125;48.542;9.052;2023-02-18T00:00:36;97022.53;;;11.85;79.29
22582;BME280;47125;48.542;9.052;2023-02-18T00:10:39;97004.81;;;11.84;79.65
22582;BME280;47125;48.542;9.052;2023-02-18T00:20:43;96995.41;;;11.75;80.73
22582;BME280;47125;48.542;9.052;2023-02-18T00:30:45;96975.66;;;11.76;80.48
22582;BME280;47125;48.542;9.052;2023-02-18T00:40:49;96976.69;;;11.75;80.49
22582;BME280;47125;48.542;9.052;2023-02-18T00:50:52;96979.59;;;11.73;80.68
22582;BME280;47125;48.542;9.052;2023-02-18T01:00:56;96960.44;;;11.76;80.17
22582;BME280;47125;48.542;9.052;2023-02-18T01:10:58;96960.16;;;11.59;80.47
22582;BME280;47125;48.542;9.052;2023-02-18T01:21:03;96948.19;;;11.62;79.96
22582;BME280;47125;48.542;9.052;2023-02-18T01:31:09;96950.19;;;11.67;79.53
22582;BME280;47125;48.542;9.052;2023-02-18T01:41:14;96932.41;;;11.54;79.98
22582;BME280;47125;48.542;9.052;2023-02-18T01:51:17;96929.13;;;11.52;79.99
22582;BME280;47125;48.542;9.052;2023-02-18T02:01:22;96920.00;;;11.41;80.20
22582;BME280;47125;48.542;9.052;2023-02-18T02:11:39;96919.25;;;11.28;80.93
22582;BME280;47125;48.542;9.052;2023-02-18T02:42:24;96898.59;;;11.17;81.03
22582;BME280;47125;48.542;9.052;2023-02-18T02:52:29;96896.66;;;11.24;80.86
22582;BME280;47125;48.542;9.052;2023-02-18T03:02:35;96892.91;;;11.31;80.42
22582;BME280;47125;48.542;9.052;2023-02-18T03:12:42;96887.78;;;11.30;79.98
22582;BME280;47125;48.542;9.052;2023-02-18T03:22:49;96880.63;;;11.24;80.03
22582;BME280;47125;48.542;9.052;2023-02-18T03:32:54;96891.25;;;11.30;79.64
22582;BME280;47125;48.542;9.052;2023-02-18T03:42:59;96868.75;;;11.20;79.44
22582;BME280;47125;48.542;9.052;2023-02-18T03:53:02;96833.13;;;11.01;80.15
22582;BME280;47125;48.542;9.052;2023-02-18T04:03:06;96829.91;;;10.92;80.64
22582;BME280;47125;48.542;9.052;2023-02-18T04:13:08;96837.78;;;10.87;81.01
22582;BME280;47125;48.542;9.052;2023-02-18T04:23:12;96848.09;;;10.84;81.23
22582;BME280;47125;48.542;9.052;2023-02-18T04:33:14;96838.66;;;10.81;80.90
22582;BME280;47125;48.542;9.052;2023-02-18T04:43:18;96842.78;;;10.77;80.85
22582;BME280;47125;48.542;9.052;2023-02-18T04:53:21;96845.50;;;10.71;81.86
22582;BME280;47125;48.542;9.052;2023-02-18T05:03:25;96844.28;;;10.67;82.18
22582;BME280;47125;48.542;9.052;2023-02-18T05:13:27;96841.19;;;10.70;81.98
22582;BME280;47125;48.542;9.052;2023-02-18T05:23:31;96834.44;;;10.67;82.47
22582;BME280;47125;48.542;9.052;2023-02-18T05:33:37;96830.84;;;10.80;82.08
22582;BME280;47125;48.542;9.052;2023-02-18T05:43:41;96837.34;;;10.90;81.27
22582;BME280;47125;48.542;9.052;2023-02-18T05:54:01;96846.16;;;10.91;80.94
22582;BME280;47125;48.542;9.052;2023-02-18T06:04:05;96839.25;;;10.83;80.84
22582;BME280;47125;48.542;9.052;2023-02-18T06:14:07;96835.69;;;10.89;80.72
22582;BME280;47125;48.542;9.052;2023-02-18T06:24:11;96836.28;;;10.91;80.14
22582;BME280;47125;48.542;9.052;2023-02-18T06:34:14;96837.34;;;10.90;80.49
22582;BME280;47125;48.542;9.052;2023-02-18T06:44:18;96834.81;;;10.95;80.41
22582;BME280;47125;48.542;9.052;2023-02-18T06:54:20;96834.38;;;10.98;80.14
22582;BME280;47125;48.542;9.052;2023-02-18T07:04:24;96832.91;;;11.02;80.25
22582;BME280;47125;48.542;9.052;2023-02-18T07:14:27;96839.34;;;11.20;79.71
22582;BME280;47125;48.542;9.052;2023-02-18T07:24:31;96844.84;;;11.25;79.48
22582;BME280;47125;48.542;9.052;2023-02-18T07:34:33;96852.13;;;11.36;79.22
22582;BME280;47125;48.542;9.052;2023-02-18T07:44:37;96841.22;;;11.37;79.12
22582;BME280;47125;48.542;9.052;2023-02-18T07:54:40;96823.91;;;11.58;78.22
22582;BME280;47125;48.542;9.052;2023-02-18T08:04:44;96830.38;;;11.69;76.90
22582;BME280;47125;48.542;9.052;2023-02-18T08:14:47;96828.75;;;11.68;75.86
22582;BME280;47125;48.542;9.052;2023-02-18T08:24:52;96816.94;;;11.75;75.74
22582;BME280;47125;48.542;9.052;2023-02-18T08:34:55;96818.72;;;11.81;75.15
22582;BME280;47125;48.542;9.052;2023-02-18T08:44:59;96812.41;;;11.76;75.22
22582;BME280;47125;48.542;9.052;2023-02-18T08:55:01;96811.22;;;11.90;74.59
22582;BME280;47125;48.542;9.052;2023-02-18T09:05:06;96809.50;;;11.95;74.74
22582;BME280;47125;48.542;9.052;2023-02-18T09:15:09;96805.31;;;11.99;75.10
22582;BME280;47125;48.542;9.052;2023-02-18T09:25:13;96783.00;;;12.05;75.24
22582;BME280;47125;48.542;9.052;2023-02-18T09:35:16;96765.72;;;12.20;75.14
22582;BME280;47125;48.542;9.052;2023-02-18T09:45:20;96745.13;;;12.32;74.02
22582;BME280;47125;48.542;9.052;2023-02-18T09:55:23;96733.28;;;12.51;72.72
22582;BME280;47125;48.542;9.052;2023-02-18T10:05:28;96727.25;;;12.79;71.27
22582;BME280;47125;48.542;9.052;2023-02-18T10:15:31;96736.94;;;12.91;69.88
22582;BME280;47125;48.542;9.052;2023-02-18T10:25:35;96732.63;;;12.90;69.66
22582;BME280;47125;48.542;9.052;2023-02-18T10:35:45;96729.94;;;12.90;70.19
22582;BME280;47125;48.542;9.052;2023-02-18T10:45:54;96725.63;;;12.89;69.52
22582;BME280;47125;48.542;9.052;2023-02-18T10:56:04;96751.59;;;12.77;69.51
22582;BME280;47125;48.542;9.052;2023-02-18T11:06:15;96751.38;;;12.79;69.69
22582;BME280;47125;48.542;9.052;2023-02-18T11:16:21;96737.41;;;12.77;69.61
22582;BME280;47125;48.542;9.052;2023-02-18T11:26:26;96724.34;;;12.92;68.92
22582;BME280;47125;48.542;9.052;2023-02-18T11:36:32;96703.47;;;12.94;67.95
22582;BME280;47125;48.542;9.052;2023-02-18T11:46:36;96692.41;;;12.90;67.26
22582;BME280;47125;48.542;9.052;2023-02-18T11:56:39;96659.88;;;12.87;66.80
22582;BME280;47125;48.542;9.052;2023-02-18T12:06:45;96674.81;;;12.94;66.48
22582;BME280;47125;48.542;9.052;2023-02-18T12:27:09;96672.59;;;13.14;64.41
22582;BME280;47125;48.542;9.052;2023-02-18T12:37:22;96657.16;;;13.33;62.91
22582;BME280;47125;48.542;9.052;2023-02-18T12:47:37;96650.72;;;13.34;62.45
22582;BME280;47125;48.542;9.052;2023-02-18T12:57:45;96657.94;;;13.45;61.87
22582;BME280;47125;48.542;9.052;2023-02-18T13:07:53;96654.56;;;13.38;61.84
22582;BME280;47125;48.542;9.052;2023-02-18T13:18:01;96645.00;;;13.42;61.70
22582;BME280;47125;48.542;9.052;2023-02-18T13:28:09;96626.97;;;13.54;61.16
22582;BME280;47125;48.542;9.052;2023-02-18T13:38:25;96631.28;;;13.55;59.56
22582;BME280;47125;48.542;9.052;2023-02-18T13:48:38;96620.97;;;13.64;58.71
22582;BME280;47125;48.542;9.052;2023-02-18T13:58:43;96617.09;;;13.71;57.54
22582;BME280;47125;48.542;9.052;2023-02-18T14:08:51;96642.63;;;13.74;56.75
22582;BME280;47125;48.542;9.052;2023-02-18T14:19:03;96608.78;;;13.73;57.00
22582;BME280;47125;48.542;9.052;2023-02-18T14:29:09;96621.97;;;13.91;57.33
22582;BME280;47125;48.542;9.052;2023-02-18T14:39:13;96599.16;;;14.05;56.05
22582;BME280;47125;48.542;9.052;2023-02-18T14:49:33;96604.16;;;13.85;55.89
22582;BME280;47125;48.542;9.052;2023-02-18T14:59:39;96589.38;;;13.99;56.28
22582;BME280;47125;48.542;9.052;2023-02-18T15:09:49;96583.66;;;14.12;56.35
22582;BME280;47125;48.542;9.052;2023-02-18T15:19:54;96579.75;;;14.03;56.25
22582;BME280;47125;48.542;9.052;2023-02-18T15:30:03;96604.53;;;14.05;57.24
22582;BME280;47125;48.542;9.052;2023-02-18T15:40:10;96598.06;;;13.90;57.32
22582;BME280;47125;48.542;9.052;2023-02-18T15:50:17;96586.34;;;13.79;57.28
22582;BME280;47125;48.542;9.052;2023-02-18T16:00:26;96592.25;;;13.64;57.75
22582;BME280;47125;48.542;9.052;2023-02-18T16:10:41;96585.34;;;13.52;57.44
22582;BME280;47125;48.542;9.052;2023-02-18T16:20:51;96582.25;;;13.32;57.70
22582;BME280;47125;48.542;9.052;2023-02-18T16:30:55;96592.56;;;13.23;58.19
22582;BME280;47125;48.542;9.052;2023-02-18T16:40:57;96595.28;;;13.11;59.62
22582;BME280;47125;48.542;9.052;2023-02-18T16:51:02;96595.38;;;13.05;60.51
22582;BME280;47125;48.542;9.052;2023-02-18T17:01:07;96604.94;;;13.01;60.98
22582;BME280;47125;48.542;9.052;2023-02-18T17:11:17;96599.75;;;12.94;61.22
22582;BME280;47125;48.542;9.052;2023-02-18T17:21:23;96600.69;;;12.88;61.70
22582;BME280;47125;48.542;9.052;2023-02-18T17:31:28;96612.56;;;12.92;61.73
22582;BME280;47125;48.542;9.052;2023-02-18T17:41:32;96628.78;;;12.86;61.87
22582;BME280;47125;48.542;9.052;2023-02-18T17:51:35;96637.16;;;12.78;62.53
22582;BME280;47125;48.542;9.052;2023-02-18T18:01:39;96650.44;;;12.84;63.24
22582;BME280;47125;48.542;9.052;2023-02-18T18:11:44;96645.44;;;12.88;63.32
22582;BME280;47125;48.542;9.052;2023-02-18T18:21:46;96661.06;;;12.79;64.37
22582;BME280;47125;48.542;9.052;2023-02-18T18:31:50;96651.75;;;12.70;65.36
22582;BME280;47125;48.542;9.052;2023-02-18T18:41:53;96658.72;;;12.71;65.60
22582;BME280;47125;48.542;9.052;2023-02-18T18:51:57;96663.63;;;12.62;66.14
22582;BME280;47125;48.542;9.052;2023-02-18T19:02:00;96652.44;;;12.65;66.42
22582;BME280;47125;48.542;9.052;2023-02-18T19:12:04;96661.66;;;12.69;66.21
22582;BME280;47125;48.542;9.052;2023-02-18T19:22:06;96662.47;;;12.58;66.79
22582;BME280;47125;48.542;9.052;2023-02-18T19:32:10;96665.63;;;12.55;66.90
22582;BME280;47125;48.542;9.052;2023-02-18T19:42:12;96652.69;;;12.52;66.80
22582;BME280;47125;48.542;9.052;2023-02-18T19:52:16;96655.59;;;12.51;66.92
22582;BME280;47125;48.542;9.052;2023-02-18T20:02:20;96666.88;;;12.41;67.09
22582;BME280;47125;48.542;9.052;2023-02-18T20:12:24;96671.19;;;12.42;66.90
22582;BME280;47125;48.542;9.052;2023-02-18T20:22:26;96656.63;;;12.38;66.78
22582;BME280;47125;48.542;9.052;2023-02-18T20:32:30;96672.22;;;12.30;67.37
22582;BME280;47125;48.542;9.052;2023-02-18T20:42:35;96657.09;;;12.24;68.02
22582;BME280;47125;48.542;9.052;2023-02-18T20:52:40;96655.34;;;12.29;68.32
22582;BME280;47125;48.542;9.052;2023-02-18T21:02:42;96646.84;;;12.21;69.04
22582;BME280;47125;48.542;9.052;2023-02-18T21:12:46;96649.63;;;12.14;69.18
22582;BME280;47125;48.542;9.052;2023-02-18T21:22:49;96652.75;;;12.11;68.63
22582;BME280;47125;48.542;9.052;2023-02-18T21:32:54;96655.78;;;12.14;68.28
22582;BME280;47125;48.542;9.052;2023-02-18T21:42:57;96641.84;;;12.12;68.38
22582;BME280;47125;48.542;9.052;2023-02-18T22:00:56;96639.13;;;11.89;69.66
22582;BME280;47125;48.542;9.052;2023-02-18T22:19:48;96635.69;;;11.71;71.14
22582;BME280;47125;48.542;9.052;2023-02-18T22:29:54;96627.84;;;11.69;71.39
22582;BME280;47125;48.542;9.052;2023-02-18T22:39:58;96629.91;;;11.55;72.40
22582;BME280;47125;48.542;9.052;2023-02-18T22:50:01;96612.09;;;11.49;73.36
22582;BME280;47125;48.542;9.052;2023-02-18T23:00:09;96601.59;;;11.48;73.19
22582;BME280;47125;48.542;9.052;2023-02-18T23:10:14;96592.41;;;11.44;73.15
22582;BME280;47125;48.542;9.052;2023-02-18T23:20:20;96590.31;;;11.46;72.82
22582;BME280;47125;48.542;9.052;2023-02-18T23:30:42;96573.81;;;11.49;72.43
22582;BME280;47125;48.542;9.052;2023-02-18T23:40:46;96563.31;;;11.36;72.48
22582;BME280;47125;48.542;9.052;2023-02-18T23:50:49;96571.47;;;11.41;71.89
